Time;durP1;ratioP1;P1;durP2;ratioP2;P2;SDS_P1;SDS_P2;PMS_P1;PMS_P2;Temp;Humidity;BMP_temperature;BMP_pressure;BME280_temperature;BME280_humidity;BME280_pressure;Samples;Min_cycle;Max_cycle;Signal;HPM_P1;HPM_P2
2021/11/07 00:02:19;;;;;;;9.10;5.53;;;;;;;;;;5100404;28;20024;-90
2021/11/07 00:04:50;;;;;;;7.47;5.43;;;;;;;;;;5096218;28;20031;-91
2021/11/07 00:16:06;;;;;;;14.75;5.95;;;;;;;;;;5083278;28;20035;-89
2021/11/07 00:18:46;;;;;;;10.23;6.57;;;;;;;;;;5097093;28;20024;-91
2021/11/07 00:21:17;;;;;;;10.52;6.40;;;;;;;;;;5100908;28;20026;-88
2021/11/07 00:24:30;;;;;;;12.55;7.13;;;;;;;;;;5100248;28;20024;-88
2021/11/07 00:26:45;;;;;;;12.82;7.40;;;;;;;;;;5094188;28;20519;-89
2021/11/07 00:29:15;;;;;;;10.23;7.68;;;;;;;;;;5098355;28;20082;-88
2021/11/07 00:37:13;;;;;;;13.88;8.98;;;;;;;;;;5104149;28;20568;-90
2021/11/07 00:42:33;;;;;;;12.55;8.38;;;;;;;;;;5111691;28;20087;-89
2021/11/07 00:45:06;;;;;;;15.98;9.32;;;;;;;;;;5104238;28;20022;-89
2021/11/07 00:47:40;;;;;;;18.73;9.18;;;;;;;;;;5098134;28;20398;-85
2021/11/07 00:50:16;;;;;;;14.25;8.80;;;;;;;;;;5100851;28;20030;-89
2021/11/07 00:52:55;;;;;;;13.93;8.63;;;;;;;;;;5102005;28;20020;-86
2021/11/07 00:55:28;;;;;;;16.23;9.02;;;;;;;;;;5103603;28;20107;-89
2021/11/07 00:58:07;;;;;;;15.13;8.32;;;;;;;;;;5099395;28;20080;-88
2021/11/07 01:02:59;;;;;;;12.75;8.38;;;;;;;;;;5099932;28;20040;-89
2021/11/07 01:05:27;;;;;;;15.40;8.05;;;;;;;;;;5080021;28;20024;-91
2021/11/07 01:07:54;;;;;;;11.52;7.75;;;;;;;;;;5081508;28;20028;-90
2021/11/07 01:10:20;;;;;;;10.65;7.38;;;;;;;;;;5083681;28;20036;-89
2021/11/07 01:12:45;;;;;;;10.63;7.25;;;;;;;;;;5082281;28;20031;-90
2021/11/07 01:15:11;;;;;;;11.23;7.90;;;;;;;;;;5080834;28;20021;-87
2021/11/07 01:17:37;;;;;;;12.13;7.60;;;;;;;;;;5079378;28;20043;-89
2021/11/07 01:20:05;;;;;;;10.38;7.57;;;;;;;;;;5079327;28;20044;-88
2021/11/07 01:25:14;;;;;;;12.73;7.93;;;;;;;;;;5080793;28;20031;-88
2021/11/07 01:27:46;;;;;;;11.48;7.30;;;;;;;;;;5080204;28;20025;-89
2021/11/07 01:30:22;;;;;;;10.15;7.05;;;;;;;;;;5079343;28;20052;-91
2021/11/07 01:32:56;;;;;;;9.48;6.80;;;;;;;;;;5080564;28;20387;-90
2021/11/07 01:35:32;;;;;;;9.05;6.60;;;;;;;;;;5080285;28;20047;-89
2021/11/07 01:38:12;;;;;;;10.48;6.72;;;;;;;;;;5079901;28;20125;-89
2021/11/07 01:40:58;;;;;;;12.77;7.13;;;;;;;;;;5078333;28;20153;-88
2021/11/07 01:43:23;;;;;;;8.43;7.03;;;;;;;;;;5078303;28;20112;-88
2021/11/07 01:46:17;;;;;;;8.20;6.90;;;;;;;;;;5079477;28;20109;-88
2021/11/07 01:48:45;;;;;;;12.52;7.32;;;;;;;;;;5079192;28;20029;-88
2021/11/07 01:51:10;;;;;;;9.55;6.93;;;;;;;;;;5079481;28;20025;-88
2021/11/07 01:53:38;;;;;;;9.95;7.38;;;;;;;;;;5079394;28;20433;-89
2021/11/07 01:56:07;;;;;;;9.65;6.70;;;;;;;;;;5079895;28;20054;-89
2021/11/07 01:58:36;;;;;;;9.55;7.03;;;;;;;;;;5094627;28;20024;-89
2021/11/07 02:01:02;;;;;;;11.13;7.05;;;;;;;;;;5079088;28;20025;-89
2021/11/07 02:03:28;;;;;;;10.65;6.55;;;;;;;;;;5094893;28;20029;-88
2021/11/07 02:05:53;;;;;;;8.07;6.50;;;;;;;;;;5079989;28;20087;-90
2021/11/07 02:08:20;;;;;;;8.35;6.15;;;;;;;;;;5079988;28;20020;-90
2021/11/07 02:10:46;;;;;;;7.38;6.53;;;;;;;;;;5095004;28;20078;-88
2021/11/07 02:13:11;;;;;;;10.30;6.45;;;;;;;;;;5077991;28;20024;-89
2021/11/07 02:15:37;;;;;;;7.53;5.80;;;;;;;;;;5078672;28;20109;-89
2021/11/07 02:18:04;;;;;;;6.53;5.78;;;;;;;;;;5092134;28;20024;-89
2021/11/07 02:20:40;;;;;;;6.53;5.80;;;;;;;;;;5097597;28;20028;-90
2021/11/07 02:23:12;;;;;;;7.05;6.35;;;;;;;;;;5100398;28;20025;-89
2021/11/07 02:25:39;;;;;;;7.15;5.82;;;;;;;;;;5078644;28;20137;-91
2021/11/07 02:28:06;;;;;;;6.93;5.65;;;;;;;;;;5078237;28;20024;-90
2021/11/07 02:30:32;;;;;;;6.70;6.00;;;;;;;;;;5077926;28;20085;-89
2021/11/07 02:32:59;;;;;;;7.07;5.85;;;;;;;;;;5084173;28;20058;-89
2021/11/07 02:35:26;;;;;;;26.67;6.80;;;;;;;;;;5076874;28;20033;-89
2021/11/07 02:37:55;;;;;;;11.30;6.25;;;;;;;;;;5077615;28;20090;-90
2021/11/07 02:40:22;;;;;;;9.20;6.40;;;;;;;;;;5076566;28;20038;-90
2021/11/07 02:42:48;;;;;;;7.45;6.68;;;;;;;;;;5076838;28;20020;-90
2021/11/07 02:45:18;;;;;;;9.07;7.47;;;;;;;;;;5079133;28;20036;-90
2021/11/07 02:47:45;;;;;;;13.70;6.88;;;;;;;;;;5078806;28;20065;-90
2021/11/07 02:50:12;;;;;;;8.75;6.97;;;;;;;;;;5080965;28;20035;-90
2021/11/07 02:52:38;;;;;;;12.70;8.27;;;;;;;;;;5097529;28;20050;-90
2021/11/07 02:55:08;;;;;;;15.75;8.90;;;;;;;;;;5082788;28;20035;-89
2021/11/07 02:57:33;;;;;;;12.15;9.10;;;;;;;;;;5094770;28;20029;-89
2021/11/07 03:00:01;;;;;;;11.57;8.32;;;;;;;;;;5093906;28;20031;-88
2021/11/07 03:02:28;;;;;;;16.42;10.38;;;;;;;;;;5081206;28;20039;-89
2021/11/07 03:04:54;;;;;;;13.15;9.18;;;;;;;;;;5083530;28;20028;-89
2021/11/07 03:07:20;;;;;;;16.20;9.27;;;;;;;;;;5085928;28;20023;-89
2021/11/07 03:09:48;;;;;;;14.23;11.38;;;;;;;;;;5100067;28;20054;-90
2021/11/07 03:12:15;;;;;;;19.50;11.68;;;;;;;;;;5097190;28;20082;-88
2021/11/07 03:14:46;;;;;;;13.25;10.40;;;;;;;;;;5097553;28;20122;-91
2021/11/07 03:17:14;;;;;;;18.77;11.20;;;;;;;;;;5098138;28;20058;-89
2021/11/07 03:19:43;;;;;;;14.65;10.75;;;;;;;;;;5098785;28;20024;-89
2021/11/07 03:22:14;;;;;;;17.20;11.55;;;;;;;;;;5097907;28;20036;-89
2021/11/07 03:24:44;;;;;;;17.77;10.38;;;;;;;;;;5101769;28;20024;-90
2021/11/07 03:27:15;;;;;;;17.83;10.98;;;;;;;;;;5102164;28;20023;-89
2021/11/07 03:29:45;;;;;;;18.55;11.27;;;;;;;;;;5096865;28;20024;-89
2021/11/07 03:34:52;;;;;;;16.10;9.75;;;;;;;;;;5100209;28;20028;-88
2021/11/07 03:37:22;;;;;;;15.60;11.48;;;;;;;;;;5097323;28;20048;-90
2021/11/07 03:39:50;;;;;;;17.45;11.57;;;;;;;;;;5098495;28;20023;-89
2021/11/07 03:42:17;;;;;;;15.60;10.48;;;;;;;;;;5097456;28;20138;-91
2021/11/07 03:44:42;;;;;;;18.10;12.18;;;;;;;;;;5097523;28;20027;-90
2021/11/07 03:47:09;;;;;;;19.05;12.80;;;;;;;;;;5096898;28;20396;-90
2021/11/07 03:49:36;;;;;;;19.70;11.57;;;;;;;;;;5099167;28;20028;-90
2021/11/07 03:52:02;;;;;;;17.08;11.85;;;;;;;;;;5098153;28;20023;-88
2021/11/07 03:54:30;;;;;;;20.52;12.25;;;;;;;;;;5097240;28;20046;-89
2021/11/07 03:56:57;;;;;;;17.13;11.45;;;;;;;;;;5097493;28;20024;-90
2021/11/07 03:59:26;;;;;;;16.42;10.68;;;;;;;;;;5097236;28;20050;-90
2021/11/07 04:01:52;;;;;;;17.65;10.55;;;;;;;;;;5096248;28;20031;-90
2021/11/07 04:04:18;;;;;;;12.90;11.02;;;;;;;;;;5097416;28;20052;-90
2021/11/07 04:06:45;;;;;;;15.07;10.20;;;;;;;;;;5096657;28;20035;-90
2021/11/07 04:09:10;;;;;;;18.23;11.00;;;;;;;;;;5097078;28;20036;-90
2021/11/07 04:11:37;;;;;;;17.70;11.48;;;;;;;;;;5097332;28;20028;-90
2021/11/07 04:14:08;;;;;;;15.23;10.45;;;;;;;;;;5098772;28;20023;-89
2021/11/07 04:16:34;;;;;;;16.83;12.45;;;;;;;;;;5097913;28;20020;-89
2021/11/07 04:19:04;;;;;;;19.70;11.68;;;;;;;;;;5097455;28;20027;-91
2021/11/07 04:21:30;;;;;;;19.95;11.40;;;;;;;;;;5096991;28;20031;-89
2021/11/07 04:23:55;;;;;;;17.48;11.43;;;;;;;;;;5097307;28;20027;-88
2021/11/07 04:26:24;;;;;;;18.13;11.38;;;;;;;;;;5095678;28;20089;-90
2021/11/07 04:28:50;;;;;;;16.77;11.40;;;;;;;;;;5096105;28;20051;-90
2021/11/07 04:31:16;;;;;;;18.92;12.15;;;;;;;;;;5095613;28;20047;-89
2021/11/07 04:33:41;;;;;;;15.85;11.13;;;;;;;;;;5095797;28;20367;-89
2021/11/07 04:36:07;;;;;;;14.93;11.13;;;;;;;;;;5096673;28;20486;-89
2021/11/07 04:38:35;;;;;;;13.73;10.52;;;;;;;;;;5096614;28;20024;-89
2021/11/07 04:41:00;;;;;;;15.00;10.25;;;;;;;;;;5097489;28;20037;-89
2021/11/07 04:43:26;;;;;;;17.48;9.93;;;;;;;;;;5098009;28;20020;-88
2021/11/07 04:45:51;;;;;;;10.48;8.43;;;;;;;;;;5097593;28;20069;-87
2021/11/07 04:48:17;;;;;;;15.00;7.40;;;;;;;;;;5096973;28;20020;-88
2021/11/07 04:50:42;;;;;;;7.47;4.65;;;;;;;;;;5097444;28;20016;-89
2021/11/07 04:53:10;;;;;;;7.25;4.85;;;;;;;;;;5098340;28;20467;-89
2021/11/07 04:55:38;;;;;;;6.32;3.95;;;;;;;;;;5101480;28;20035;-89
2021/11/07 04:58:05;;;;;;;6.78;3.75;;;;;;;;;;5107904;28;20372;-90
2021/11/07 05:00:32;;;;;;;10.38;3.53;;;;;;;;;;5100588;28;20040;-88
2021/11/07 05:02:59;;;;;;;7.68;3.05;;;;;;;;;;5101462;28;20537;-88
2021/11/07 05:05:24;;;;;;;9.52;2.65;;;;;;;;;;5106733;28;20118;-89
2021/11/07 05:07:51;;;;;;;9.63;3.40;;;;;;;;;;5096799;28;20056;-88
2021/11/07 05:10:17;;;;;;;8.10;3.10;;;;;;;;;;5096553;28;20024;-88
2021/11/07 05:12:43;;;;;;;6.97;3.50;;;;;;;;;;5101148;28;20368;-89
2021/11/07 05:15:08;;;;;;;13.90;4.60;;;;;;;;;;5095748;28;20390;-88
2021/11/07 05:17:34;;;;;;;10.93;5.15;;;;;;;;;;5099298;28;20027;-88
2021/11/07 05:20:00;;;;;;;11.38;6.60;;;;;;;;;;5101780;28;20105;-89
2021/11/07 05:22:25;;;;;;;13.38;6.70;;;;;;;;;;5102197;28;20020;-89
2021/11/07 05:24:51;;;;;;;11.93;7.63;;;;;;;;;;5099836;28;20020;-89
2021/11/07 05:27:16;;;;;;;16.45;8.60;;;;;;;;;;5100140;28;20024;-89
2021/11/07 05:29:42;;;;;;;18.38;9.70;;;;;;;;;;5100759;28;20024;-88
2021/11/07 05:32:07;;;;;;;14.20;10.35;;;;;;;;;;5102684;28;20115;-88
2021/11/07 05:34:33;;;;;;;17.70;11.43;;;;;;;;;;5101581;28;20154;-88
2021/11/07 05:36:58;;;;;;;19.75;11.52;;;;;;;;;;5100603;28;20023;-88
2021/11/07 05:39:25;;;;;;;20.38;12.80;;;;;;;;;;5100976;28;20028;-88
2021/11/07 05:41:50;;;;;;;22.35;12.25;;;;;;;;;;5100944;28;20482;-88
2021/11/07 05:44:16;;;;;;;23.50;11.55;;;;;;;;;;5100519;28;20085;-88
2021/11/07 05:46:43;;;;;;;16.63;12.15;;;;;;;;;;5100293;28;20024;-89
2021/11/07 05:49:08;;;;;;;19.17;11.60;;;;;;;;;;5100694;28;20103;-88
2021/11/07 05:51:36;;;;;;;15.57;11.15;;;;;;;;;;5099699;28;20044;-89
2021/11/07 05:54:02;;;;;;;20.27;11.40;;;;;;;;;;5098304;28;20016;-89
2021/11/07 05:56:28;;;;;;;16.17;11.15;;;;;;;;;;5099100;28;20020;-89
2021/11/07 05:58:53;;;;;;;18.67;10.77;;;;;;;;;;5099991;28;20020;-89
2021/11/07 06:01:18;;;;;;;18.65;10.10;;;;;;;;;;5099651;28;20024;-89
2021/11/07 06:03:44;;;;;;;21.85;11.65;;;;;;;;;;5100920;28;20035;-89
2021/11/07 06:06:09;;;;;;;18.40;11.02;;;;;;;;;;5099702;28;20028;-89
2021/11/07 06:08:35;;;;;;;21.63;10.43;;;;;;;;;;5103996;28;20028;-89
2021/11/07 06:11:00;;;;;;;22.83;10.80;;;;;;;;;;5105982;28;20092;-89
2021/11/07 06:13:26;;;;;;;21.88;10.07;;;;;;;;;;5099327;28;20023;-89
2021/11/07 06:15:52;;;;;;;21.42;9.57;;;;;;;;;;5099498;28;20115;-89
2021/11/07 06:18:17;;;;;;;24.60;8.95;;;;;;;;;;5103622;28;20028;-90
2021/11/07 06:20:43;;;;;;;22.35;8.98;;;;;;;;;;5101219;28;20028;-89
2021/11/07 06:23:10;;;;;;;21.15;8.95;;;;;;;;;;5101366;28;20031;-89
2021/11/07 06:25:36;;;;;;;24.77;8.82;;;;;;;;;;5098973;28;20027;-89
2021/11/07 06:28:02;;;;;;;23.63;8.23;;;;;;;;;;5099961;28;20069;-89
2021/11/07 06:30:28;;;;;;;20.10;7.15;;;;;;;;;;5101605;28;20474;-90
2021/11/07 06:32:54;;;;;;;21.17;6.70;;;;;;;;;;5099524;28;20057;-91
2021/11/07 06:35:19;;;;;;;21.80;7.35;;;;;;;;;;5100029;28;20083;-89
2021/11/07 06:37:45;;;;;;;26.48;6.65;;;;;;;;;;5099542;28;20024;-88
2021/11/07 06:40:11;;;;;;;27.13;7.15;;;;;;;;;;5098394;28;20034;-89
2021/11/07 06:42:37;;;;;;;20.50;7.90;;;;;;;;;;5099095;28;20360;-89
2021/11/07 06:45:03;;;;;;;21.80;6.85;;;;;;;;;;5099549;28;20475;-89
2021/11/07 06:47:29;;;;;;;17.60;5.65;;;;;;;;;;5099107;28;20027;-89
2021/11/07 06:49:55;;;;;;;21.92;6.00;;;;;;;;;;5100783;28;20529;-89
2021/11/07 06:52:21;;;;;;;20.75;6.60;;;;;;;;;;5098965;28;20019;-89
2021/11/07 06:54:47;;;;;;;26.17;5.70;;;;;;;;;;5097567;28;20031;-89
2021/11/07 06:57:13;;;;;;;21.88;6.22;;;;;;;;;;5099303;28;20395;-89
2021/11/07 06:59:39;;;;;;;13.23;5.13;;;;;;;;;;5098254;28;20027;-89
2021/11/07 07:02:06;;;;;;;20.70;5.15;;;;;;;;;;5099847;28;20027;-90
2021/11/07 07:04:31;;;;;;;16.35;5.00;;;;;;;;;;5100286;28;20074;-89
2021/11/07 07:06:57;;;;;;;18.60;5.00;;;;;;;;;;5091461;28;20028;-90
2021/11/07 07:09:26;;;;;;;18.65;4.60;;;;;;;;;;5095605;28;20051;-89
2021/11/07 07:12:02;;;;;;;21.50;5.22;;;;;;;;;;5080972;28;20043;-89
2021/11/07 07:14:35;;;;;;;18.83;4.85;;;;;;;;;;5080868;28;20021;-89
2021/11/07 07:17:39;;;;;;;27.27;6.43;;;;;;;;;;5097927;28;20434;-89
2021/11/07 07:20:01;;;;;;;19.73;5.07;;;;;;;;;;5078432;28;20035;-89
2021/11/07 07:28:17;;;;;;;19.20;4.25;;;;;;;;;;5050954;28;20043;-89
2021/11/07 07:30:51;;;;;;;26.40;5.93;;;;;;;;;;5080228;28;20029;-89
2021/11/07 07:35:42;;;;;;;14.63;4.20;;;;;;;;;;5092138;28;20014;-88
2021/11/07 07:38:07;;;;;;;27.48;4.38;;;;;;;;;;5094104;28;20028;-89
2021/11/07 07:40:33;;;;;;;17.23;4.47;;;;;;;;;;5077394;28;20032;-89
2021/11/07 07:42:59;;;;;;;19.55;3.78;;;;;;;;;;5078978;28;20031;-89
2021/11/07 07:45:25;;;;;;;20.80;4.00;;;;;;;;;;5080157;28;20032;-89
2021/11/07 07:47:51;;;;;;;22.17;3.40;;;;;;;;;;5080238;28;20024;-89
2021/11/07 07:50:19;;;;;;;15.82;3.95;;;;;;;;;;5078617;28;20116;-89
2021/11/07 07:52:44;;;;;;;23.60;4.25;;;;;;;;;;5079754;28;20028;-89
2021/11/07 07:55:10;;;;;;;16.13;3.17;;;;;;;;;;5078567;28;20517;-89
2021/11/07 07:57:37;;;;;;;20.88;3.88;;;;;;;;;;5079788;28;20041;-89
2021/11/07 08:00:08;;;;;;;22.90;3.75;;;;;;;;;;5078848;28;20103;-89
2021/11/07 08:02:34;;;;;;;18.45;3.55;;;;;;;;;;5079799;28;20048;-90
2021/11/07 08:04:59;;;;;;;11.60;3.00;;;;;;;;;;5078923;28;20030;-89
2021/11/07 08:07:26;;;;;;;24.83;3.45;;;;;;;;;;5078201;28;20024;-89
2021/11/07 08:09:52;;;;;;;20.77;3.50;;;;;;;;;;5079199;28;20020;-89
2021/11/07 08:12:18;;;;;;;20.60;4.70;;;;;;;;;;5080193;28;20033;-89
2021/11/07 08:14:43;;;;;;;17.70;3.00;;;;;;;;;;5080516;28;20499;-89
2021/11/07 08:17:08;;;;;;;20.77;3.97;;;;;;;;;;5094524;28;20035;-89
2021/11/07 08:19:34;;;;;;;16.02;2.75;;;;;;;;;;5077824;28;20497;-90
2021/11/07 08:21:59;;;;;;;13.73;2.78;;;;;;;;;;5076502;28;20024;-89
2021/11/07 08:24:26;;;;;;;19.33;3.40;;;;;;;;;;5077279;28;20032;-89
2021/11/07 08:26:52;;;;;;;14.52;3.13;;;;;;;;;;5078355;28;20107;-90
2021/11/07 08:29:18;;;;;;;20.17;3.42;;;;;;;;;;5078964;28;20070;-90
2021/11/07 08:31:48;;;;;;;22.90;3.45;;;;;;;;;;5094904;28;20027;-89
2021/11/07 08:34:13;;;;;;;20.65;2.33;;;;;;;;;;5079796;28;20031;-90
2021/11/07 08:36:59;;;;;;;18.27;3.00;;;;;;;;;;5080824;28;20060;-88
2021/11/07 08:39:30;;;;;;;22.48;2.75;;;;;;;;;;5079387;28;20372;-88
2021/11/07 08:42:00;;;;;;;16.08;2.60;;;;;;;;;;5080702;28;20033;-88
2021/11/07 09:00:58;;;;;;;15.35;2.50;;;;;;;;;;5083921;28;20032;-89
2021/11/07 09:03:45;;;;;;;25.70;5.05;;;;;;;;;;5100831;28;20111;-91
2021/11/07 09:06:58;;;;;;;26.98;4.63;;;;;;;;;;5090896;28;20028;-91
2021/11/07 09:08:59;;;;;;;21.00;3.10;;;;;;;;;;5083080;28;20173;-90
2021/11/07 09:11:25;;;;;;;18.50;3.58;;;;;;;;;;5083375;28;20024;-88
2021/11/07 09:13:50;;;;;;;24.83;3.17;;;;;;;;;;5085355;28;20020;-91
2021/11/07 09:16:16;;;;;;;23.05;4.07;;;;;;;;;;5084531;28;20032;-90
2021/11/07 09:18:45;;;;;;;21.80;3.05;;;;;;;;;;5083210;28;20031;-90
2021/11/07 09:21:21;;;;;;;20.08;3.72;;;;;;;;;;5083981;28;20028;-90
2021/11/07 09:23:51;;;;;;;20.33;2.70;;;;;;;;;;5085254;28;20024;-90
2021/11/07 09:26:25;;;;;;;18.13;3.22;;;;;;;;;;5083125;28;20025;-90
2021/11/07 09:28:56;;;;;;;27.30;3.92;;;;;;;;;;5085022;28;20115;-90
2021/11/07 09:34:15;;;;;;;25.73;3.35;;;;;;;;;;5086899;28;20035;-90
2021/11/07 09:36:46;;;;;;;;;;;;;;;;;;5083489;28;20031;-90
2021/11/07 09:44:13;;;;;;;18.17;2.97;;;;;;;;;;5085104;28;20083;-90
2021/11/07 09:49:17;;;;;;;12.77;2.20;;;;;;;;;;5084789;28;20025;-90
2021/11/07 09:51:48;;;;;;;17.25;2.40;;;;;;;;;;5085241;28;20048;-90
2021/11/07 09:54:17;;;;;;;17.50;2.95;;;;;;;;;;5085303;28;20017;-90
2021/11/07 09:56:47;;;;;;;17.80;3.00;;;;;;;;;;5082759;28;20025;-90
2021/11/07 09:59:15;;;;;;;15.85;2.28;;;;;;;;;;5085035;28;20136;-90
2021/11/07 10:01:41;;;;;;;12.90;2.15;;;;;;;;;;5083203;28;20025;-90
2021/11/07 10:04:06;;;;;;;16.52;2.53;;;;;;;;;;5083171;28;20483;-91
2021/11/07 10:06:50;;;;;;;15.52;2.17;;;;;;;;;;5081534;28;20048;-88
2021/11/07 10:09:31;;;;;;;18.10;2.92;;;;;;;;;;5077655;28;20036;-90
2021/11/07 10:12:21;;;;;;;11.95;2.15;;;;;;;;;;5080358;28;20070;-90
2021/11/07 10:14:56;;;;;;;19.92;2.65;;;;;;;;;;5084151;28;20092;-91
2021/11/07 10:17:46;;;;;;;19.48;3.05;;;;;;;;;;5083889;28;20029;-90
2021/11/07 10:20:42;;;;;;;19.25;2.70;;;;;;;;;;5085409;28;20035;-90
2021/11/07 10:23:39;;;;;;;18.52;3.30;;;;;;;;;;5083677;28;20037;-90
2021/11/07 10:26:31;;;;;;;13.93;2.08;;;;;;;;;;5082559;28;20043;-90
2021/11/07 10:29:01;;;;;;;16.52;2.20;;;;;;;;;;5083197;28;20024;-89
2021/11/07 10:31:49;;;;;;;14.68;2.67;;;;;;;;;;5082890;28;20515;-90
2021/11/07 10:53:56;;;;;;;14.88;2.92;;;;;;;;;;5084492;28;20519;-90
2021/11/07 10:56:22;;;;;;;20.55;2.47;;;;;;;;;;5082464;28;20020;-90
2021/11/07 10:58:47;;;;;;;25.60;3.20;;;;;;;;;;5080495;28;20376;-91
2021/11/07 11:01:21;;;;;;;15.27;2.75;;;;;;;;;;5080542;28;20027;-90
2021/11/07 11:04:02;;;;;;;17.77;3.00;;;;;;;;;;5082018;28;20031;-90
2021/11/07 11:06:28;;;;;;;18.70;2.33;;;;;;;;;;5085098;28;20031;-91
2021/11/07 11:09:08;;;;;;;15.77;2.58;;;;;;;;;;5092108;28;20035;-92
2021/11/07 11:11:41;;;;;;;18.02;3.13;;;;;;;;;;5095005;28;20044;-90
2021/11/07 11:17:32;;;;;;;15.05;2.13;;;;;;;;;;5035910;28;20050;-89
2021/11/07 11:20:33;;;;;;;20.92;2.15;;;;;;;;;;5088258;28;20059;-90
2021/11/07 11:23:15;;;;;;;18.25;2.58;;;;;;;;;;5081663;28;20033;-89
2021/11/07 11:25:50;;;;;;;24.75;3.03;;;;;;;;;;5081286;28;20024;-90
2021/11/07 11:28:36;;;;;;;15.93;2.05;;;;;;;;;;5102921;28;20125;-90
2021/11/07 11:31:13;;;;;;;16.27;2.63;;;;;;;;;;5082925;28;20017;-91
2021/11/07 11:33:51;;;;;;;10.00;2.20;;;;;;;;;;5085268;28;20028;-91
2021/11/07 11:36:29;;;;;;;19.83;2.60;;;;;;;;;;5094798;28;20029;-90
2021/11/07 11:39:08;;;;;;;18.42;2.67;;;;;;;;;;5104258;28;20020;-91
2021/11/07 11:44:24;;;;;;;14.07;2.00;;;;;;;;;;5076318;28;20059;-91
2021/11/07 11:47:16;;;;;;;13.90;2.30;;;;;;;;;;5080830;28;20017;-91
2021/11/07 11:50:00;;;;;;;14.43;2.28;;;;;;;;;;5084034;28;20032;-90
2021/11/07 11:52:39;;;;;;;8.98;1.85;;;;;;;;;;5082010;28;20048;-91
2021/11/07 11:55:28;;;;;;;10.40;1.92;;;;;;;;;;5082133;28;20028;-91
2021/11/07 12:06:33;;;;;;;13.20;2.53;;;;;;;;;;5080497;28;20036;-91
2021/11/07 12:09:43;;;;;;;9.00;2.60;;;;;;;;;;5100910;28;20050;-91
2021/11/07 12:15:01;;;;;;;16.65;2.35;;;;;;;;;;5101060;28;20130;-90
2021/11/07 12:17:33;;;;;;;15.48;2.60;;;;;;;;;;5099378;28;20020;-89
2021/11/07 12:20:00;;;;;;;16.17;3.03;;;;;;;;;;5096640;28;20055;-89
2021/11/07 12:22:31;;;;;;;18.98;3.15;;;;;;;;;;5096565;28;20117;-89
2021/11/07 12:25:04;;;;;;;19.00;3.03;;;;;;;;;;5095072;28;20020;-88
2021/11/07 12:27:36;;;;;;;17.15;3.05;;;;;;;;;;5098872;28;20020;-89
2021/11/07 12:30:15;;;;;;;29.77;7.05;;;;;;;;;;5100141;28;20032;-89
2021/11/07 12:32:43;;;;;;;21.77;3.83;;;;;;;;;;5099603;28;20028;-89
2021/11/07 12:35:22;;;;;;;22.83;2.83;;;;;;;;;;5101986;28;20020;-90
2021/11/07 12:40:49;;;;;;;26.23;4.32;;;;;;;;;;5105927;28;20063;-92
2021/11/07 12:43:21;;;;;;;17.38;2.08;;;;;;;;;;5104754;28;20513;-91
2021/11/07 12:45:51;;;;;;;16.42;2.85;;;;;;;;;;5103246;28;20050;-92
2021/11/07 12:48:40;;;;;;;14.80;1.98;;;;;;;;;;5116761;28;20012;-90
2021/11/07 12:51:09;;;;;;;11.70;1.83;;;;;;;;;;5107883;28;20020;-92
2021/11/07 12:54:04;;;;;;;18.15;2.63;;;;;;;;;;5107351;28;20020;-91
2021/11/07 12:56:40;;;;;;;15.80;3.08;;;;;;;;;;5105343;28;20049;-91
2021/11/07 12:59:09;;;;;;;22.52;4.07;;;;;;;;;;5106201;28;20051;-91
2021/11/07 13:02:05;;;;;;;14.68;2.20;;;;;;;;;;5103001;28;20024;-91
2021/11/07 13:04:44;;;;;;;14.40;1.60;;;;;;;;;;5104371;28;20016;-91
2021/11/07 13:07:20;;;;;;;26.50;3.40;;;;;;;;;;5107376;28;20360;-92
2021/11/07 13:09:56;;;;;;;14.52;2.95;;;;;;;;;;5095615;28;20040;-91
2021/11/07 13:12:29;;;;;;;14.70;1.80;;;;;;;;;;5081558;28;20051;-91
2021/11/07 13:17:43;;;;;;;12.45;2.38;;;;;;;;;;5084902;28;20060;-90
2021/11/07 13:20:32;;;;;;;19.25;2.97;;;;;;;;;;5080565;28;20059;-91
2021/11/07 13:23:25;;;;;;;16.20;2.75;;;;;;;;;;5080442;28;20054;-90
2021/11/07 13:28:33;;;;;;;19.92;3.15;;;;;;;;;;5082678;28;20474;-91
2021/11/07 13:31:10;;;;;;;11.52;3.33;;;;;;;;;;5089645;28;20019;-91
2021/11/07 13:33:38;;;;;;;15.73;2.33;;;;;;;;;;5084177;28;20036;-91
2021/11/07 13:36:05;;;;;;;17.80;2.20;;;;;;;;;;5103708;28;20024;-91
2021/11/07 13:38:37;;;;;;;18.40;2.60;;;;;;;;;;5098788;28;20055;-91
2021/11/07 13:41:15;;;;;;;16.10;2.15;;;;;;;;;;5100898;28;20024;-92
2021/11/07 13:43:43;;;;;;;19.45;2.95;;;;;;;;;;5102424;28;20091;-91
2021/11/07 13:46:08;;;;;;;15.82;2.30;;;;;;;;;;5105872;28;20474;-91
2021/11/07 13:48:35;;;;;;;17.75;2.15;;;;;;;;;;5104714;28;20031;-91
2021/11/07 13:51:02;;;;;;;11.82;2.17;;;;;;;;;;5103249;28;20083;-90
2021/11/07 13:53:34;;;;;;;12.80;2.00;;;;;;;;;;5103910;28;20246;-91
2021/11/07 13:56:05;;;;;;;12.43;2.03;;;;;;;;;;5099777;28;20164;-93
2021/11/07 13:58:33;;;;;;;8.05;1.60;;;;;;;;;;5102445;28;20094;-90
2021/11/07 14:01:03;;;;;;;13.40;2.40;;;;;;;;;;5090326;28;20029;-89
2021/11/07 14:03:28;;;;;;;9.88;1.10;;;;;;;;;;5081370;28;20031;-90
2021/11/07 14:06:13;;;;;;;7.38;1.60;;;;;;;;;;5116804;28;20398;-91
2021/11/07 14:08:55;;;;;;;9.73;1.40;;;;;;;;;;5107356;28;20046;-91
2021/11/07 14:11:21;;;;;;;10.25;1.73;;;;;;;;;;5081180;28;20020;-91
2021/11/07 14:13:50;;;;;;;11.05;2.13;;;;;;;;;;5086666;28;20395;-90
2021/11/07 14:16:33;;;;;;;13.57;2.33;;;;;;;;;;5077421;28;20025;-91
2021/11/07 14:19:07;;;;;;;14.00;4.15;;;;;;;;;;5089255;28;20024;-90
2021/11/07 14:21:36;;;;;;;19.73;4.47;;;;;;;;;;5079340;28;20031;-91
2021/11/07 14:26:37;;;;;;;10.10;2.50;;;;;;;;;;5111047;28;20028;-91
2021/11/07 14:29:37;;;;;;;17.58;6.07;;;;;;;;;;5102257;28;20059;-91
2021/11/07 14:35:26;;;;;;;14.10;2.58;;;;;;;;;;5098183;28;20031;-91
2021/11/07 14:40:10;;;;;;;11.98;2.33;;;;;;;;;;5097871;28;20471;-91
2021/11/07 14:42:57;;;;;;;19.00;3.33;;;;;;;;;;5097917;28;20028;-91
2021/11/07 14:45:51;;;;;;;15.18;2.35;;;;;;;;;;5086995;28;20024;-91
2021/11/07 14:51:41;;;;;;;12.43;2.08;;;;;;;;;;5077997;28;20016;-91
2021/11/07 14:54:39;;;;;;;15.15;2.10;;;;;;;;;;5098454;28;20111;-91
2021/11/07 15:05:26;;;;;;;14.82;1.92;;;;;;;;;;5100026;28;20047;-92
2021/11/07 15:08:15;;;;;;;15.18;1.90;;;;;;;;;;5098462;28;20024;-91
2021/11/07 15:13:46;;;;;;;18.52;3.80;;;;;;;;;;5102673;28;20024;-91
2021/11/07 15:19:15;;;;;;;24.73;2.50;;;;;;;;;;5084596;28;20036;-90
2021/11/07 15:24:17;;;;;;;16.90;2.28;;;;;;;;;;5098864;28;20039;-92
2021/11/07 15:26:52;;;;;;;15.75;2.22;;;;;;;;;;5080565;28;20020;-90
2021/11/07 15:29:31;;;;;;;26.40;3.58;;;;;;;;;;5097600;28;20043;-92
2021/11/07 15:32:13;;;;;;;22.80;7.10;;;;;;;;;;5097142;28;20063;-91
2021/11/07 15:34:42;;;;;;;20.67;3.35;;;;;;;;;;5079839;28;20066;-91
2021/11/07 15:37:21;;;;;;;22.30;2.70;;;;;;;;;;5086793;28;20035;-91
2021/11/07 15:39:48;;;;;;;11.93;1.90;;;;;;;;;;5090548;28;20124;-91
2021/11/07 15:42:17;;;;;;;24.10;2.03;;;;;;;;;;5122286;28;20027;-92
2021/11/07 15:44:49;;;;;;;15.60;2.28;;;;;;;;;;5104084;28;20021;-92
2021/11/07 15:47:18;;;;;;;14.65;3.33;;;;;;;;;;5080795;28;20033;-91
2021/11/07 15:49:56;;;;;;;17.48;2.42;;;;;;;;;;5088574;28;20024;-92
2021/11/07 15:52:34;;;;;;;15.32;2.45;;;;;;;;;;5090056;28;20165;-92
2021/11/07 15:58:13;;;;;;;16.13;2.47;;;;;;;;;;5089939;28;20036;-91
2021/11/07 16:11:12;;;;;;;12.95;2.40;;;;;;;;;;5097879;28;20017;-91
2021/11/07 16:13:45;;;;;;;13.40;2.13;;;;;;;;;;5118810;28;20028;-91
2021/11/07 16:18:41;;;;;;;18.88;2.63;;;;;;;;;;5105212;28;20402;-91
2021/11/07 16:21:10;;;;;;;13.85;2.08;;;;;;;;;;5082289;28;20514;-91
2021/11/07 16:23:36;;;;;;;22.77;3.42;;;;;;;;;;5089366;28;20030;-91
2021/11/07 16:26:06;;;;;;;15.50;2.58;;;;;;;;;;5082414;28;20372;-92
2021/11/07 16:28:34;;;;;;;19.88;3.63;;;;;;;;;;5096234;28;20472;-91
2021/11/07 16:31:05;;;;;;;18.75;2.80;;;;;;;;;;5080200;28;20111;-91
2021/11/07 16:33:35;;;;;;;18.92;2.78;;;;;;;;;;5087062;28;20391;-91
2021/11/07 16:36:09;;;;;;;20.35;3.40;;;;;;;;;;5086433;28;20114;-89
2021/11/07 16:38:48;;;;;;;20.20;3.40;;;;;;;;;;5077835;28;20302;-89
2021/11/07 16:41:19;;;;;;;18.35;3.42;;;;;;;;;;5096158;28;20039;-89
2021/11/07 16:43:47;;;;;;;17.17;3.40;;;;;;;;;;5089635;28;20475;-89
2021/11/07 16:46:16;;;;;;;16.15;3.47;;;;;;;;;;5080232;28;20403;-90
2021/11/07 16:48:45;;;;;;;20.58;3.33;;;;;;;;;;5078172;28;20095;-89
2021/11/07 16:51:24;;;;;;;23.55;2.72;;;;;;;;;;5087005;28;20027;-91
2021/11/07 16:53:57;;;;;;;15.52;2.58;;;;;;;;;;5088737;28;20083;-89
2021/11/07 16:56:25;;;;;;;21.75;3.40;;;;;;;;;;5078855;28;20033;-90
2021/11/07 17:04:13;;;;;;;19.38;3.05;;;;;;;;;;5079386;28;20610;-90
2021/11/07 17:06:48;;;;;;;21.23;3.72;;;;;;;;;;5082275;28;20036;-90
2021/11/07 17:09:40;;;;;;;29.80;5.15;;;;;;;;;;5078539;28;20024;-91
2021/11/07 17:12:08;;;;;;;18.70;4.00;;;;;;;;;;5085202;28;20032;-91
2021/11/07 17:14:34;;;;;;;37.25;7.22;;;;;;;;;;5099332;28;20062;-91
2021/11/07 17:17:04;;;;;;;38.25;7.18;;;;;;;;;;5082082;28;20029;-91
2021/11/07 17:19:33;;;;;;;23.88;3.33;;;;;;;;;;5098631;28;20057;-89
2021/11/07 17:24:42;;;;;;;21.35;3.85;;;;;;;;;;5082929;28;20113;-89
2021/11/07 17:27:11;;;;;;;16.65;3.30;;;;;;;;;;5099096;28;20027;-88
2021/11/07 17:29:43;;;;;;;22.33;3.78;;;;;;;;;;5096530;28;20048;-90